Time,TemperatureF,DewpointF,PressureIn,WindDirection,WindDirectionDegrees,WindSpeedMPH,WindSpeedGustMPH,Humidity,HourlyPrecipIn,Conditions,Clouds,dailyrainin,SoftwareType,DateUTC
2013-08-16 00:13:00,57.0,53.0,30.26,ESE,119,8.0,9.0,88,0.00,,,0.00,,2013-08-16 04:13:00,
2013-08-16 00:23:00,57.0,53.0,30.26,ESE,117,8.0,8.0,88,0.00,,,0.00,,2013-08-16 04:23:00,
2013-08-16 00:42:00,57.0,54.0,30.26,ESE,107,8.0,9.0,89,0.00,,,0.00,,2013-08-16 04:42:00,
2013-08-16 00:54:00,57.0,54.0,30.26,ESE,117,8.0,9.0,89,0.00,,,0.00,,2013-08-16 04:54:00,
2013-08-16 01:12:00,57.0,54.0,30.25,ESE,123,9.0,10.0,91,0.00,,,0.00,,2013-08-16 05:12:00,
2013-08-16 01:22:00,57.0,55.0,30.25,ESE,115,9.0,11.0,92,0.00,,,0.00,,2013-08-16 05:22:00,
2013-08-16 01:42:00,57.0,55.0,30.26,ESE,105,8.0,9.0,93,0.00,,,0.00,,2013-08-16 05:42:00,
2013-08-16 03:00:00,56.0,54.0,30.23,ESE,117,8.0,14.0,92,0.00,,,0.00,,2013-08-16 07:00:00,
2013-08-16 03:11:00,56.0,54.0,30.22,ESE,110,9.0,11.0,92,0.00,,,0.00,,2013-08-16 07:11:00,
2013-08-16 03:21:00,56.0,54.0,30.22,ESE,121,8.0,11.0,94,0.00,,,0.00,,2013-08-16 07:21:00,
2013-08-16 03:42:00,55.0,53.0,30.22,ESE,120,8.0,10.0,94,0.00,,,0.00,,2013-08-16 07:42:00,
2013-08-16 03:52:00,55.0,52.0,30.21,ESE,111,11.0,18.0,91,0.00,,,0.00,,2013-08-16 07:52:00,
2013-08-16 04:11:00,55.0,53.0,30.22,East,90,10.0,13.0,92,0.00,,,0.00,,2013-08-16 08:11:00,
2013-08-16 04:21:00,55.0,52.0,30.22,ESE,117,10.0,14.0,90,0.00,,,0.00,,2013-08-16 08:21:00,
2013-08-16 04:42:00,55.0,52.0,30.22,SE,127,11.0,15.0,89,0.00,,,0.00,,2013-08-16 08:42:00,
2013-08-16 04:52:00,55.0,52.0,30.22,ESE,120,11.0,15.0,90,0.00,,,0.00,,2013-08-16 08:52:00,
2013-08-16 05:11:00,55.0,52.0,30.22,ESE,120,9.0,11.0,91,0.00,,,0.00,,2013-08-16 09:11:00,
2013-08-16 05:21:00,55.0,52.0,30.22,ESE,117,9.0,14.0,91,0.00,,,0.00,,2013-08-16 09:21:00,
2013-08-16 05:42:00,55.0,52.0,30.22,ESE,119,9.0,12.0,91,0.00,,,0.00,,2013-08-16 09:42:00,
2013-08-16 05:53:00,55.0,52.0,30.22,ESE,117,9.0,12.0,91,0.00,,,0.00,,2013-08-16 09:53:00,
2013-08-16 06:13:00,55.0,52.0,30.22,ESE,109,9.0,11.0,91,0.00,,,0.00,,2013-08-16 10:13:00,
2013-08-16 06:23:00,55.0,52.0,30.23,ESE,108,9.0,11.0,90,0.00,,,0.00,,2013-08-16 10:23:00,
2013-08-16 06:42:00,55.0,52.0,30.23,ESE,105,12.0,17.0,89,0.00,,,0.00,,2013-08-16 10:42:00,
2013-08-16 06:53:00,55.0,52.0,30.23,ESE,115,10.0,16.0,89,0.00,,,0.00,,2013-08-16 10:53:00,
2013-08-16 07:12:00,55.0,52.0,30.23,NNE,16,11.0,14.0,89,0.00,,,0.00,,2013-08-16 11:12:00,
2013-08-16 07:22:00,55.0,51.0,30.22,East,84,15.0,16.0,86,0.00,,,0.00,,2013-08-16 11:22:00,
2013-08-16 07:42:00,55.0,51.0,30.24,East,95,11.0,16.0,87,0.00,,,0.00,,2013-08-16 11:42:00,
2013-08-16 07:52:00,55.0,52.0,30.24,ENE,74,14.0,21.0,88,0.00,,,0.00,,2013-08-16 11:52:00,
2013-08-16 08:12:00,55.0,52.0,30.24,ESE,103,14.0,22.0,88,0.00,,,0.00,,2013-08-16 12:12:00,
2013-08-16 08:21:00,55.0,51.0,30.24,East,89,12.0,14.0,86,0.00,,,0.00,,2013-08-16 12:21:00,
2013-08-16 08:42:00,55.0,52.0,30.25,East,98,12.0,17.0,88,0.00,,,0.00,,2013-08-16 12:42:00,
2013-08-16 08:52:00,55.0,52.0,30.24,East,88,16.0,21.0,88,0.00,,,0.00,,2013-08-16 12:52:00,
2013-08-16 09:11:00,55.0,52.0,30.25,East,93,13.0,19.0,88,0.00,,,0.00,,2013-08-16 13:11:00,
2013-08-16 09:22:00,55.0,52.0,30.25,East,91,15.0,18.0,89,0.00,,,0.00,,2013-08-16 13:22:00,
2013-08-16 09:42:00,54.0,51.0,30.25,ENE,62,13.0,18.0,90,0.00,,,0.00,,2013-08-16 13:42:00,
2013-08-16 09:53:00,54.0,51.0,30.27,ESE,121,13.0,17.0,91,0.00,,,0.00,,2013-08-16 13:53:00,
2013-08-16 10:11:00,54.0,51.0,30.27,East,101,13.0,17.0,91,0.00,,,0.00,,2013-08-16 14:11:00,
2013-08-16 10:22:00,54.0,52.0,30.26,East,91,12.0,14.0,92,0.00,,,0.00,,2013-08-16 14:22:00,
2013-08-16 10:42:00,54.0,52.0,30.25,ENE,68,13.0,15.0,92,0.00,,,0.00,,2013-08-16 14:42:00,
2013-08-16 10:52:00,54.0,53.0,30.27,ESE,115,12.0,18.0,95,0.00,,,0.00,,2013-08-16 14:52:00,
2013-08-16 11:12:00,53.0,52.0,30.26,ESE,103,13.0,20.0,95,0.00,,,0.00,,2013-08-16 15:12:00,
2013-08-16 11:22:00,53.0,52.0,30.27,ESE,120,11.0,18.0,98,0.00,,,0.00,,2013-08-16 15:22:00,
2013-08-16 11:43:00,53.0,52.0,30.27,ESE,103,10.0,21.0,98,0.00,,,0.00,,2013-08-16 15:43:00,
2013-08-16 11:56:00,53.0,53.0,30.27,SE,124,9.0,15.0,99,0.00,,,0.00,,2013-08-16 15:56:00,
2013-08-16 12:13:00,53.0,53.0,30.27,East,92,11.0,17.0,99,0.00,,,0.00,,2013-08-16 16:13:00,
2013-08-16 12:23:00,54.0,54.0,30.27,North,353,13.0,18.0,99,0.00,,,0.00,,2013-08-16 16:23:00,
2013-08-16 12:43:00,53.0,53.0,30.27,ESE,116,10.0,17.0,99,0.00,,,0.00,,2013-08-16 16:43:00,
2013-08-16 12:57:00,54.0,54.0,30.27,East,82,11.0,15.0,99,0.00,,,0.00,,2013-08-16 16:57:00,
2013-08-16 13:13:00,54.0,54.0,30.27,ESE,113,12.0,18.0,99,0.00,,,0.00,,2013-08-16 17:13:00,
2013-08-16 13:28:00,54.0,54.0,30.27,ESE,122,10.0,15.0,99,0.00,,,0.00,,2013-08-16 17:28:00,
2013-08-16 13:47:00,55.0,55.0,30.27,East,100,9.0,14.0,100,0.00,,,0.00,,2013-08-16 17:47:00,
2013-08-16 14:00:00,55.0,55.0,30.26,ESE,116,9.0,15.0,99,0.00,,,0.00,,2013-08-16 18:00:00,
2013-08-16 14:15:00,55.0,55.0,30.26,ESE,108,9.0,16.0,99,0.00,,,0.00,,2013-08-16 18:15:00,
2013-08-16 14:28:00,56.0,55.0,30.26,ESE,112,12.0,17.0,98,0.00,,,0.00,,2013-08-16 18:28:00,
2013-08-16 14:50:00,-999.0,-99.9,30.26,East,101,11.0,16.0,96,0.00,,,0.00,,2013-08-16 18:50:00,
2013-08-16 15:14:00,56.0,55.0,30.25,East,100,14.0,20.0,97,0.00,,,0.00,,2013-08-16 19:14:00,
2013-08-16 15:25:00,56.0,55.0,30.25,East,85,13.0,19.0,96,0.00,,,0.00,,2013-08-16 19:25:00,
2013-08-16 15:46:00,57.0,56.0,30.25,ESE,108,11.0,16.0,96,0.00,,,0.00,,2013-08-16 19:46:00,
2013-08-16 15:55:00,57.0,56.0,30.24,ESE,107,8.0,14.0,97,0.00,,,0.00,,2013-08-16 19:55:00,
2013-08-16 16:11:00,57.0,56.0,30.24,East,101,9.0,14.0,97,0.00,,,0.00,,2013-08-16 20:11:00,
2013-08-16 16:23:00,58.0,56.0,30.24,East,96,15.0,16.0,94,0.00,,,0.00,,2013-08-16 20:23:00,
2013-08-16 16:44:00,58.0,56.0,30.24,ESE,108,11.0,17.0,93,0.00,,,0.00,,2013-08-16 20:44:00,
2013-08-16 16:52:00,58.0,56.0,30.24,East,90,13.0,17.0,92,0.00,,,0.00,,2013-08-16 20:52:00,
2013-08-16 17:11:00,59.0,57.0,30.24,East,97,9.0,15.0,93,0.00,,,0.00,,2013-08-16 21:11:00,
2013-08-16 17:25:00,59.0,56.0,30.24,ESE,110,8.0,11.0,91,0.00,,,0.00,,2013-08-16 21:25:00,
2013-08-16 17:40:00,-999.0,-99.9,30.24,ESE,102,10.0,14.0,-999,0.00,,,0.00,,2013-08-16 21:40:00,
2013-08-16 17:54:00,59.0,57.0,30.24,East,101,9.0,12.0,92,0.00,,,0.00,,2013-08-16 21:54:00,
2013-08-16 18:13:00,59.0,57.0,30.23,ESE,106,9.0,12.0,92,0.00,,,0.00,,2013-08-16 22:13:00,
2013-08-16 18:24:00,59.0,58.0,30.23,ESE,119,9.0,15.0,95,0.00,,,0.00,,2013-08-16 22:24:00,
2013-08-16 18:43:00,59.0,57.0,30.23,East,92,13.0,14.0,94,0.00,,,0.00,,2013-08-16 22:43:00,
2013-08-16 18:52:00,59.0,58.0,30.23,ESE,110,9.0,18.0,95,0.00,,,0.00,,2013-08-16 22:52:00,
2013-08-16 19:12:00,59.0,57.0,30.23,East,96,14.0,16.0,94,0.00,,,0.00,,2013-08-16 23:12:00,
2013-08-16 19:23:00,59.0,58.0,30.23,ESE,111,10.0,15.0,95,0.00,,,0.00,,2013-08-16 23:23:00,
2013-08-16 19:42:00,59.0,58.0,30.23,SE,124,10.0,14.0,96,0.00,,,0.00,,2013-08-16 23:42:00,
2013-08-16 19:52:00,58.0,58.0,30.24,ESE,122,9.0,11.0,99,0.00,,,0.00,,2013-08-16 23:52:00,
2013-08-16 20:11:00,58.0,58.0,30.25,SE,124,10.0,13.0,99,0.00,,,0.00,,2013-08-17 00:11:00,
2013-08-16 20:21:00,58.0,58.0,30.25,SE,124,11.0,14.0,99,0.00,,,0.00,,2013-08-17 00:21:00,
2013-08-16 20:42:00,58.0,58.0,30.26,ESE,117,9.0,14.0,100,0.00,,,0.00,,2013-08-17 00:42:00,
2013-08-16 20:52:00,58.0,58.0,30.26,SE,127,9.0,11.0,100,0.00,,,0.00,,2013-08-17 00:52:00,
2013-08-16 21:11:00,57.0,57.0,30.27,ESE,122,10.0,14.0,100,0.00,,,0.00,,2013-08-17 01:11:00,
2013-08-16 21:21:00,57.0,57.0,30.27,ESE,122,11.0,15.0,100,0.00,,,0.00,,2013-08-17 01:21:00,
2013-08-16 21:42:00,56.0,56.0,30.27,ESE,115,10.0,13.0,100,0.00,,,0.00,,2013-08-17 01:42:00,
2013-08-16 21:52:00,56.0,56.0,30.28,SE,124,13.0,16.0,100,0.00,,,0.00,,2013-08-17 01:52:00,
2013-08-16 22:11:00,56.0,56.0,30.29,ESE,108,19.0,20.0,100,0.00,,,0.00,,2013-08-17 02:11:00,
2013-08-16 22:21:00,56.0,56.0,30.29,ESE,108,16.0,20.0,100,0.00,,,0.00,,2013-08-17 02:21:00,
2013-08-16 22:42:00,56.0,56.0,30.29,ESE,113,14.0,19.0,100,0.00,,,0.00,,2013-08-17 02:42:00,
2013-08-16 22:52:00,56.0,56.0,30.29,ESE,111,13.0,21.0,100,0.00,,,0.00,,2013-08-17 02:52:00,
2013-08-16 23:11:00,56.0,56.0,30.29,ESE,122,16.0,21.0,100,0.00,,,0.00,,2013-08-17 03:11:00,
2013-08-16 23:22:00,56.0,56.0,30.29,ESE,112,11.0,21.0,100,0.00,,,0.00,,2013-08-17 03:22:00,
2013-08-16 23:43:00,56.0,56.0,30.29,ESE,115,13.0,18.0,100,0.00,,,0.00,,2013-08-17 03:43:00,
2013-08-16 23:53:00,56.0,56.0,30.29,ESE,108,16.0,20.0,100,0.00,,,0.00,,2013-08-17 03:53:00,